East Walpole, MA

11:10 PM EST on January 30, 2015 (GMT -0500)
East Walpole, MA | Change Station
CLOSE
Current Station
Personal Weather Station
Location: East Walpole, MA
Elevation: 197 ft
Nearby Weather Stations

Elev 197 ft 42.15 °N, 71.22 °W | Updated 10 seconds ago

Overcast
Overcast
20.0 °F
Feels Like 20 °F
N
0.0
Wind Variable Wind from NNE
Gusts 19.0 mph

Today
High -- | Low -- °F
--% Chance of Precip.
Yesterday
High -- | Low -- °F
Precip. -- in
7:00 AM 4:56 PM
Waxing Gibbous, 87% visible
Pressure 29.78 in
Visibility 8.0 miles
Clouds Overcast 5000 ft
Windchill 20 °F
Dew Point 7 °F
Humidity 56%
Rainfall 0.07 in
Snow Depth Not available.
UV 0 out of 12
Pollen .10 out of 12
Air Quality Not available.
Flu Activity Not available.
METAR KOWD 310353Z AUTO 32015G28KT 8SM -SN OVC050 M06/M13 A2977 RMK AO2 PK WND 31031/0319 SLP082 P0000 T10611133

More Conditions Fewer Conditions

Pressure 29.78 in
Visibility 8.0 miles
Clouds Overcast 5000 ft
Windchill 20 °F
Dew Point 7 °F
Humidity 56%
Rainfall 0.07 in
Snow Depth Not available.
UV 0 out of 12
Pollen .10 out of 12
Air Quality Not available.
Flu Activity Not available.
METAR KOWD 310353Z AUTO 32015G28KT 8SM -SN OVC050 M06/M13 A2977 RMK AO2 PK WND 31031/0319 SLP082 P0000 T10611133

More Conditions Fewer Conditions

10-Day Weather Forecast

Almanac

Astronomy

Jan. 30, 2015 Rise Set
Actual Time
Civil Twilight
Nautical Twilight
Astronomical Twilight
Moon
Length of Visible Light
Length of Day
Tomorrow will be .
, % of the Moon is Illuminated

Today's Extremes

State Highs State Lows

Community

WunderPhotos

Upload Photos

1,791,999 photos uploaded!

WunderBlogs® & News

Nearby

Air Quality

  Air Quality AQ Index Pollutant
Not available.

Snow Depth

Station Depth Elevation

Earthquake Activity

City Distance Mag. Time & Date
Minimum magnitude displayed is 2.5.

Coastal Water Temperatures

Place Temperature

Nearby Weather Stations